TOURFACTS.DK  
Stats and Facts from Tour de France.

Tour de France 2019 starts in 348 days
  Riders   Stages   Teams   Summits   Yearly  


 
Search by year

After 2018 - Stage 14:
 15000 starters.
  5163 different riders.
  639 teams.
  2246 stages.
  456 restdays.
  441957.60 km.
  5678 abandonnees.


Top 3
GC
Christopher Froome86:20:55
Rigoberto Urán86:21:49
Romain Bardet86:23:15
Climb
Warren Barguil169 pt.
Primoz Roglic80 pt.
Thomas De Gendt64 pt.
Sprint
Michael Matthews359 pt.
André Greipel234 pt.
Edvald Boasson Hagen220 pt.
Youth
Simon Yates86:27:09
Louis Meintjes86:29:15
Emanuel Buchmann86:54:16
Facts from Tour de France 1974
  |   Stages.  |   Stage winners.  |   Days in yellow  |   Average speed.  |   Route.  |   Teams.  |   All riders.  |   Rookies.  |  

  |   Withdrawls.  |   GC.  |   Polka  |   Green  |   White  |   Summits. (In tour)  |   Miscellaneous.  |  

Stage 9 on July 6th. 1974
         Owning:    Eddy Merckx    
Pick a stage:  Pro 1 2 3 4 5 6a 6b 7 8a 8b 9 10 11 12 13 14 15 16 17 18 19a 19b 20 21a 21b 22
From: Besançon    To: GaillardDist:241.00 km.
Cat: 4Côte de FertansESPAndrês Oliva
5 points
 
Cat: 3Côte de RoussesESPAndrês Oliva
10 points
 
Cat: 1Col du Saleve/Côte de Croisette ESPGonzalo Aja
15 points
 

Average speed for all riders in stage:  32,848 km./hr.
    Place:Name:Team:Time:Km/h:
BELEddy MerckxITAMolteni07:09:58  +  00:00:00=33,631 
ITAWladimiro PanizzaITABrooklyn07:09:58  +  00:00:00=33,631 
FRARaymond PoulidorFRAGan-Mercier-Hutchinson07:09:58  +  00:00:00=33,631 
4 PORJoaquim AgostinhoFRABic07:09:58  +  00:00:00=33,631 
5 ESPGonzalo AjaESPKas-Kaskol07:09:58  +  00:00:00=33,631 
6 FRAAlain SantyFRAGan-Mercier-Hutchinson07:09:58  +  00:00:00=33,631 
7 ESPVicente LopezESPKas-Kaskol07:10:16  +  00:00:18=33,607 
8 BELHerman Van SpringelBELMic-De Gribaldy-Ludo07:12:25  +  00:02:27=33,440 
9 ESPMiguel LasaESPKas-Kaskol07:12:25  +  00:02:27=33,440 
10 FRAJean-Pierre DanguillaumeFRAPeugeot-BP-Michelin07:12:25  +  00:02:27=33,440 
11 FRARoger PingeonFRAJobo-Lejeune07:12:25  +  00:02:27=33,440 
12 BELLucien Van ImpeFRASonolor-Gitanes07:12:25  +  00:02:27=33,440 
13 ESPAndrês OlivaESPLa Casera-Peña Bahamontes07:12:25  +  00:02:27=33,440 
14 ESPFrancisco GaldosESPKas-Kaskol07:12:25  +  00:02:27=33,440 
15 ESPMariano MartinezFRASonolor-Gitanes07:12:25  +  00:02:27=33,440 
16 FRARaymond DelisleFRAPeugeot-BP-Michelin07:12:25  +  00:02:27=33,440 
17 ESPDamaso TorresESPLa Casera-Peña Bahamontes07:12:25  +  00:02:27=33,440 
18 ITAGiancarlo BelliniITABrooklyn07:12:25  +  00:02:27=33,440 
19 ESPAndré RomeroFRAJobo-Lejeune07:12:25  +  00:02:27=33,440 
20 BELRonald De WitteBELCarpenter Confortluxe-Flandria07:13:29  +  00:03:31=33,358 
21 ESPJuan ZuranoESPLa Casera-Peña Bahamontes07:13:29  +  00:03:31=33,358 
22 FRAMichel PerinFRAGan-Mercier-Hutchinson07:13:29  +  00:03:31=33,358 
23 FRAGerard MoneyronFRAMerlin Plage-Flandria07:13:29  +  00:03:31=33,358 
24 NEDGerrie KnetemannFRAGan-Mercier-Hutchinson07:13:29  +  00:03:31=33,358 
25 BELWilly Van NesteFRASonolor-Gitanes07:13:29  +  00:03:31=33,358 
26 BELGeorges PintensBELMic-De Gribaldy-Ludo07:13:29  +  00:03:31=33,358 
27 BELJoseph BruyereITAMolteni07:13:29  +  00:03:31=33,358 
28 FRABernard LabourdetteFRABic07:13:29  +  00:03:31=33,358 
29 ESPJosé PesarrodonaESPKas-Kaskol07:13:29  +  00:03:31=33,358 
30 BELMichel PollentierBELCarpenter Confortluxe-Flandria07:13:29  +  00:03:31=33,358 
31 FRAFerdinand JulienFRASonolor-Gitanes07:13:29  +  00:03:31=33,358 
32 NEDCees BalFRAGan-Mercier-Hutchinson07:15:09  +  00:05:11=33,230 
33 FRAJosé CatieauFRABic07:15:09  +  00:05:11=33,230 
34 FRAAlain NoguesFRASonolor-Gitanes07:15:09  +  00:05:11=33,230 
35 FRAAndré MolletFRAPeugeot-BP-Michelin07:16:01  +  00:06:03=33,164 
36 FRABernard BourreauFRAPeugeot-BP-Michelin07:16:01  +  00:06:03=33,164 
37 NEDFedor Iwan Den HertogNLDFrisol-Flair Plastics07:16:01  +  00:06:03=33,164 
38 BELJan Van De WieleBELMic-De Gribaldy-Ludo07:16:01  +  00:06:03=33,164 
39 ITAFausto BertoglioITABrooklyn07:16:01  +  00:06:03=33,164 
40 FRAJoël MillardFRAMerlin Plage-Flandria07:16:01  +  00:06:03=33,164 
41 COLAntonio MartosESPKas-Kaskol07:16:01  +  00:06:03=33,164 
42 BELJos De SchoenmaeckerITAMolteni07:16:01  +  00:06:03=33,164 
43 NEDGerard VianenFRAGan-Mercier-Hutchinson07:17:25  +  00:07:27=33,058 
44 DENLeif MortensenFRABic07:17:25  +  00:07:27=33,058 
45 ESPCarlos MeleroESPKas-Kaskol07:17:25  +  00:07:27=33,058 
46 FRAJean-Pierre GenetFRAGan-Mercier-Hutchinson07:17:25  +  00:07:27=33,058 
47 BELEduard JanssensITAMolteni07:17:25  +  00:07:27=33,058 
48 BELVictor Van SchilITAMolteni07:17:25  +  00:07:27=33,058 
49 ENGBarry HobanFRAGan-Mercier-Hutchinson07:17:25  +  00:07:27=33,058 
50 ITAValerio LualdiITABrooklyn07:17:25  +  00:07:27=33,058 
51 FRARégis OvionFRAPeugeot-BP-Michelin07:17:25  +  00:07:27=33,058 
52 FRASylvain VasseurFRABic07:17:25  +  00:07:27=33,058 
53 PORHerculano FerreiraBELMic-De Gribaldy-Ludo07:17:25  +  00:07:27=33,058 
54 ESPLuis ZuberoESPKas-Kaskol07:17:25  +  00:07:27=33,058 
55 FRAJacques EsclassanFRAPeugeot-BP-Michelin07:18:32  +  00:08:34=32,974 
56 FRACharly RouxelFRAPeugeot-BP-Michelin07:18:32  +  00:08:34=32,974 
57 FRAChristian BlainFRAJobo-Lejeune07:18:32  +  00:08:34=32,974 
58 NEDGerben KarstensFRABic07:18:32  +  00:08:34=32,974 
59 FRACyrille GuimardFRAMerlin Plage-Flandria07:18:32  +  00:08:34=32,974 
60 FRABernard ThevenetFRAPeugeot-BP-Michelin07:18:32  +  00:08:34=32,974 
61 BELJoseph SpruytITAMolteni07:18:32  +  00:08:34=32,974 
62 FRAJean-Jacques SanquerFRAMerlin Plage-Flandria07:18:32  +  00:08:34=32,974 
63 FRAFrancis CampanerFRAJobo-Lejeune07:18:32  +  00:08:34=32,974 
64 FRADaniel DucreuxFRAJobo-Lejeune07:18:32  +  00:08:34=32,974 
65 ESPDomingo PerurenaESPKas-Kaskol07:18:32  +  00:08:34=32,974 
66 ESPJesus ManzanequeESPLa Casera-Peña Bahamontes07:18:32  +  00:08:34=32,974 
67 BELMarc LievensITAMolteni07:18:32  +  00:08:34=32,974 
68 ESPJosé AbilleiraESPLa Casera-Peña Bahamontes07:18:32  +  00:08:34=32,974 
69 FRAGuy SibilleFRAPeugeot-BP-Michelin07:18:32  +  00:08:34=32,974 
70 FRADaniel RebillardFRAMerlin Plage-Flandria07:18:32  +  00:08:34=32,974 
71 FRAJean-Luc MolinerisFRABic07:18:32  +  00:08:34=32,974 
72 NEDWim PrinsenNLDFrisol-Flair Plastics07:18:32  +  00:08:34=32,974 
73 ESPAntonio MenendezESPKas-Kaskol07:18:32  +  00:08:34=32,974 
74 BELNoël VancloosterBELMic-De Gribaldy-Ludo07:20:06  +  00:10:08=32,856 
75 ESPJesus EsperanzaESPLa Casera-Peña Bahamontes07:20:06  +  00:10:08=32,856 
76 BELWilly TeirlinckFRASonolor-Gitanes07:20:06  +  00:10:08=32,856 
77 ESPFernando PlazaESPLa Casera-Peña Bahamontes07:20:06  +  00:10:08=32,856 
78 BELMarc DemeyerBELCarpenter Confortluxe-Flandria07:20:06  +  00:10:08=32,856 
79 FRAAlain VasseurFRABic07:20:06  +  00:10:08=32,856 
80 FRARaymond RiotteFRAPeugeot-BP-Michelin07:20:42  +  00:10:44=32,811 
81 FRAClaude MagniFRAJobo-Lejeune07:20:42  +  00:10:44=32,811 
82 FRAJacky MouriouxFRAGan-Mercier-Hutchinson07:20:42  +  00:10:44=32,811 
83 FRAJean-Claude MisacFRAMerlin Plage-Flandria07:20:42  +  00:10:44=32,811 
84 FRAJean-Pierre GuillemotFRAJobo-Lejeune07:22:08  +  00:12:10=32,705 
85 NEDHenk PrinsenNLDFrisol-Flair Plastics07:22:08  +  00:12:10=32,705 
86 BELLudo DelcroixITAMolteni07:22:08  +  00:12:10=32,705 
87 ITAGianni Di LorenzoITABrooklyn07:22:08  +  00:12:10=32,705 
88 FRAAlain CiganaFRAJobo-Lejeune07:22:08  +  00:12:10=32,705 
89 BELGustaaf Van RoosbroeckBELMic-De Gribaldy-Ludo07:22:08  +  00:12:10=32,705 
90 ENGMichael WrightFRASonolor-Gitanes07:22:08  +  00:12:10=32,705 
91 FRARobert MintkiewiczFRASonolor-Gitanes07:22:08  +  00:12:10=32,705 
92 BELJoseph HuysmansITAMolteni07:22:08  +  00:12:10=32,705 
93 ESPFelix GonzalezESPLa Casera-Peña Bahamontes07:22:08  +  00:12:10=32,705 
94 FRABernard CroyetFRABic07:22:08  +  00:12:10=32,705 
95 FRAMichel CorollerFRAMerlin Plage-Flandria07:22:08  +  00:12:10=32,705 
96 ITAArturo PecchielanITABrooklyn07:22:08  +  00:12:10=32,705 
97 BELFrans MintjensITAMolteni07:22:08  +  00:12:10=32,705 
98 BELAndré DierickxFRAMerlin Plage-Flandria07:22:08  +  00:12:10=32,705 
99 BELPatrick SercuITABrooklyn07:22:08  +  00:12:10=32,705 
100 ITAAttilio RotaITABrooklyn07:22:08  +  00:12:10=32,705 
101 FRAJacques BotherelFRASonolor-Gitanes07:22:08  +  00:12:10=32,705 
102 BELWilfried WesemaelBELMic-De Gribaldy-Ludo07:22:08  +  00:12:10=32,705 
103 FRARoland BerlandFRABic07:22:08  +  00:12:10=32,705 
104 BELArthur Van de VyverBELCarpenter Confortluxe-Flandria07:22:08  +  00:12:10=32,705 
105 FRAChristian RaymondFRAGan-Mercier-Hutchinson07:22:08  +  00:12:10=32,705 
106 ESPAntonio Vallori MateuESPLa Casera-Peña Bahamontes07:25:13  +  00:15:15=32,479 
107 BELEddy CaelBELCarpenter Confortluxe-Flandria07:28:12  +  00:18:14=32,262 
108 BELDaniel VerplanckeBELCarpenter Confortluxe-Flandria07:28:12  +  00:18:14=32,262 
109 BELRonny VanmarckeBELMic-De Gribaldy-Ludo07:28:12  +  00:18:14=32,262 
110 BELGhislain Van LandeghemFRAMerlin Plage-Flandria07:28:12  +  00:18:14=32,262 
111 BELWilfried DavidBELCarpenter Confortluxe-Flandria07:28:12  +  00:18:14=32,262 
112 FRABernard MassonFRAJobo-Lejeune07:28:12  +  00:18:14=32,262 
113 ITAAldo ParecchiniITABrooklyn07:36:14  +  00:26:16=31,694 
114 BELDirk BaertBELMic-De Gribaldy-Ludo07:36:14  +  00:26:16=31,694 
115 FRAJean-Claude BlocherFRAJobo-Lejeune07:37:38  +  00:27:40=31,597 
116 FRARegis DelepineFRAMerlin Plage-Flandria07:37:38  +  00:27:40=31,597 
117 BELFrans Van LooyBELCarpenter Confortluxe-Flandria07:41:57  +  00:31:59=31,302 
118 BELRoger VerschaeveBELCarpenter Confortluxe-Flandria07:41:57  +  00:31:59=31,302 
119 BELEric LemanBELMic-De Gribaldy-Ludo07:41:57  +  00:31:59=31,302 
120 ITALorenzo AlaimoNLDFrisol-Flair Plastics07:52:32  +  00:42:34=30,601 
121 NEDPiet Van KatwijkNLDFrisol-Flair Plastics07:53:02  +  00:43:04=30,569 
122 AUSDonald AllanNLDFrisol-Flair Plastics07:53:02  +  00:43:04=30,569 
123 NEDHenk PoppeNLDFrisol-Flair Plastics07:53:02  +  00:43:04=30,569 

Withdrawls: 4
 
Rider
Team
Reason
48  FRAClaude TolletFRASonolor-GitanesDid not start
95  ITAErcole GualazziniITABrooklynDid not finish
124  NEDWil De VlamNLDFrisol-Flair PlasticsDid not finish
125  NEDAlbert HulzeboschNLDFrisol-Flair PlasticsDid not finish

Todays birthdays.

1877  Antoine Perrichon
1878  Auguste Berthault
1911  Théo Herckenrath
1924  Carlo Lafranchi
1931  Armand Di Caro
1937  Jean-Claude Lebaube
1951  Giovanni Battaglin
1961  Pascal Jules
1962  Jean-Claude Leclercq
1976  Janek Tombak
1978  Francisco Pérez
1983  Dries Devenyns




Visits: